Time;durP1;ratioP1;P1;durP2;ratioP2;P2;SDS_P1;SDS_P2;PMS_P1;PMS_P2;Temp;Humidity;BMP_temperature;BMP_pressure;BME280_temperature;BME280_humidity;BME280_pressure;Samples;Min_cycle;Max_cycle;Signal;HPM_P1;HPM_P2
2023/08/20 00:00:43;;;;;;;3.13;2.92;;;;;;;;;;5076517;28;20107;-24
2023/08/20 00:03:13;;;;;;;2.92;2.72;;;;;;;;;;5076116;28;20029;-24
2023/08/20 00:05:40;;;;;;;3.03;2.83;;;;;;;;;;5058396;28;20127;-20
2023/08/20 00:08:06;;;;;;;3.30;3.10;;;;;;;;;;5075113;28;20363;-21
2023/08/20 00:10:33;;;;;;;3.38;3.17;;;;;;;;;;5058625;28;20039;-20
2023/08/20 00:12:59;;;;;;;3.10;2.90;;;;;;;;;;5058252;28;20060;-26
2023/08/20 00:15:28;;;;;;;3.10;2.90;;;;;;;;;;5076336;28;20351;-23
2023/08/20 00:17:55;;;;;;;2.95;2.75;;;;;;;;;;5075795;28;20036;-23
2023/08/20 00:20:22;;;;;;;3.05;2.85;;;;;;;;;;5075768;28;20036;-25
2023/08/20 00:22:48;;;;;;;2.50;2.40;;;;;;;;;;5075978;28;20025;-23
2023/08/20 00:25:15;;;;;;;2.63;2.53;;;;;;;;;;5076015;28;20355;-22
2023/08/20 00:27:42;;;;;;;3.13;2.92;;;;;;;;;;5075961;28;20029;-22
2023/08/20 00:30:09;;;;;;;3.08;2.88;;;;;;;;;;5075914;28;20029;-22
2023/08/20 00:32:35;;;;;;;2.95;2.75;;;;;;;;;;5075457;28;20036;-23
2023/08/20 00:35:02;;;;;;;2.83;2.70;;;;;;;;;;5075403;28;20028;-23
2023/08/20 00:37:29;;;;;;;3.25;3.05;;;;;;;;;;5075720;28;20043;-22
2023/08/20 00:39:55;;;;;;;3.10;2.90;;;;;;;;;;5075708;28;20332;-30
2023/08/20 00:42:21;;;;;;;3.10;2.90;;;;;;;;;;5075348;28;20027;-20
2023/08/20 00:44:47;;;;;;;3.15;2.95;;;;;;;;;;5057737;28;20516;-23
2023/08/20 00:47:14;;;;;;;3.00;2.80;;;;;;;;;;5075553;28;20106;-22
2023/08/20 00:49:41;;;;;;;3.20;3.00;;;;;;;;;;5075221;28;20064;-23
2023/08/20 00:52:12;;;;;;;2.97;2.78;;;;;;;;;;5075160;28;20412;-22
2023/08/20 00:54:40;;;;;;;2.83;2.63;;;;;;;;;;5075108;28;20108;-31
2023/08/20 00:57:07;;;;;;;2.55;2.38;;;;;;;;;;5075407;28;20025;-22
2023/08/20 00:59:33;;;;;;;2.80;2.70;;;;;;;;;;5075093;28;20426;-22
2023/08/20 01:02:00;;;;;;;3.15;2.95;;;;;;;;;;5074960;28;20028;-23
2023/08/20 01:04:26;;;;;;;3.08;2.88;;;;;;;;;;5074993;28;20058;-23
2023/08/20 01:07:15;;;;;;;3.10;2.90;;;;;;;;;;5074964;28;20107;-24
2023/08/20 01:09:46;;;;;;;2.67;2.58;;;;;;;;;;5075295;28;20328;-22
2023/08/20 01:12:13;;;;;;;2.70;2.60;;;;;;;;;;5075149;28;20020;-23
2023/08/20 01:14:39;;;;;;;2.30;2.20;;;;;;;;;;5074820;28;20028;-23
2023/08/20 01:17:05;;;;;;;2.22;2.13;;;;;;;;;;5075109;28;20104;-24
2023/08/20 01:19:31;;;;;;;2.72;2.53;;;;;;;;;;5074559;28;20020;-26
2023/08/20 01:22:16;;;;;;;2.80;2.70;;;;;;;;;;5074716;28;20021;-23
2023/08/20 01:24:54;;;;;;;2.53;2.42;;;;;;;;;;5074790;28;20042;-28
2023/08/20 01:27:41;;;;;;;3.00;2.85;;;;;;;;;;5074787;28;20040;-22
2023/08/20 01:30:08;;;;;;;2.30;2.20;;;;;;;;;;5074923;28;20079;-20
2023/08/20 01:32:35;;;;;;;3.30;3.10;;;;;;;;;;5074583;28;20115;-22
2023/08/20 01:35:01;;;;;;;2.90;2.70;;;;;;;;;;5074850;28;20024;-24
2023/08/20 01:37:27;;;;;;;2.65;2.55;;;;;;;;;;5074673;28;20513;-20
2023/08/20 01:39:53;;;;;;;2.40;2.30;;;;;;;;;;5074612;28;20052;-22
2023/08/20 01:42:19;;;;;;;2.42;2.33;;;;;;;;;;5056800;28;20031;-29
2023/08/20 01:44:45;;;;;;;3.30;3.10;;;;;;;;;;5074466;28;20029;-22
2023/08/20 01:47:11;;;;;;;2.47;2.38;;;;;;;;;;5074534;28;20100;-26
2023/08/20 01:49:37;;;;;;;2.40;2.30;;;;;;;;;;5057031;28;20036;-22
2023/08/20 01:52:03;;;;;;;2.72;2.53;;;;;;;;;;5074648;28;20418;-26
2023/08/20 01:54:30;;;;;;;2.67;2.55;;;;;;;;;;5074387;28;20107;-23
2023/08/20 01:56:56;;;;;;;2.60;2.50;;;;;;;;;;5074415;28;20024;-20
2023/08/20 01:59:23;;;;;;;2.50;2.40;;;;;;;;;;5075243;28;20052;-24
2023/08/20 02:01:49;;;;;;;2.38;2.28;;;;;;;;;;5074561;28;20024;-24
2023/08/20 02:04:15;;;;;;;3.25;3.05;;;;;;;;;;5074186;28;20037;-27
2023/08/20 02:06:42;;;;;;;2.95;2.75;;;;;;;;;;5074334;28;20413;-29
2023/08/20 02:09:08;;;;;;;2.65;2.45;;;;;;;;;;5074278;28;20109;-24
2023/08/20 02:11:35;;;;;;;2.38;2.28;;;;;;;;;;5074271;28;20095;-22
2023/08/20 02:14:02;;;;;;;2.65;2.45;;;;;;;;;;5074087;28;20025;-23
2023/08/20 02:16:28;;;;;;;2.63;2.53;;;;;;;;;;5074192;28;20031;-23
2023/08/20 02:18:55;;;;;;;2.42;2.33;;;;;;;;;;5074145;28;20095;-22
2023/08/20 02:21:21;;;;;;;3.20;3.00;;;;;;;;;;5074468;28;20356;-22
2023/08/20 02:23:47;;;;;;;2.65;2.55;;;;;;;;;;5074394;28;20493;-23
2023/08/20 02:26:14;;;;;;;2.92;2.72;;;;;;;;;;5074122;28;20032;-23
2023/08/20 02:28:41;;;;;;;2.35;2.25;;;;;;;;;;5074355;28;20039;-28
2023/08/20 02:31:07;;;;;;;2.78;2.58;;;;;;;;;;5075970;28;20025;-21
2023/08/20 02:33:33;;;;;;;2.50;2.40;;;;;;;;;;5077813;28;20024;-25
2023/08/20 02:36:06;;;;;;;2.42;2.33;;;;;;;;;;5077777;28;20031;-23
2023/08/20 02:38:32;;;;;;;2.55;2.45;;;;;;;;;;5077781;28;20082;-21
2023/08/20 02:40:58;;;;;;;2.25;2.15;;;;;;;;;;5077960;28;20023;-24
2023/08/20 02:43:24;;;;;;;2.25;2.15;;;;;;;;;;5077656;28;20016;-22
2023/08/20 02:45:50;;;;;;;2.58;2.20;;;;;;;;;;5077659;28;20107;-23
2023/08/20 02:48:16;;;;;;;2.20;2.10;;;;;;;;;;5077589;28;20067;-24
2023/08/20 02:50:43;;;;;;;2.33;2.22;;;;;;;;;;5077845;28;20360;-22
2023/08/20 02:53:09;;;;;;;2.30;2.20;;;;;;;;;;5077719;28;20031;-25
2023/08/20 02:55:35;;;;;;;2.75;2.65;;;;;;;;;;5077685;28;20501;-22
2023/08/20 02:58:03;;;;;;;2.35;2.25;;;;;;;;;;5077454;28;20020;-23
2023/08/20 03:00:29;;;;;;;2.83;2.63;;;;;;;;;;5077384;28;20023;-20
2023/08/20 03:02:56;;;;;;;2.70;2.50;;;;;;;;;;5077559;28;20024;-21
2023/08/20 03:05:22;;;;;;;2.20;2.10;;;;;;;;;;5077183;28;20052;-19
2023/08/20 03:07:49;;;;;;;2.50;2.40;;;;;;;;;;5077283;28;20031;-22
2023/08/20 03:10:15;;;;;;;2.65;2.55;;;;;;;;;;5077155;28;20036;-24
2023/08/20 03:12:41;;;;;;;2.17;2.08;;;;;;;;;;5077133;28;20115;-26
2023/08/20 03:15:07;;;;;;;2.67;2.47;;;;;;;;;;5077059;28;20056;-21
2023/08/20 03:17:33;;;;;;;2.10;2.00;;;;;;;;;;5077356;28;20082;-25
2023/08/20 03:20:00;;;;;;;2.33;2.22;;;;;;;;;;5077055;28;20025;-23
2023/08/20 03:22:27;;;;;;;2.50;2.40;;;;;;;;;;5076929;28;20114;-23
2023/08/20 03:24:53;;;;;;;2.15;2.05;;;;;;;;;;5059248;28;20043;-23
2023/08/20 03:27:20;;;;;;;3.03;2.83;;;;;;;;;;5077178;28;20035;-25
2023/08/20 03:29:46;;;;;;;2.70;2.60;;;;;;;;;;5076908;28;20103;-21
2023/08/20 03:32:12;;;;;;;2.40;2.30;;;;;;;;;;5076741;28;20050;-21
2023/08/20 03:34:39;;;;;;;2.40;2.30;;;;;;;;;;5076691;28;20052;-21
2023/08/20 03:37:05;;;;;;;2.40;2.30;;;;;;;;;;5076694;28;20024;-22
2023/08/20 03:39:31;;;;;;;2.10;2.00;;;;;;;;;;5076955;28;20020;-21
2023/08/20 03:41:58;;;;;;;2.28;2.17;;;;;;;;;;5076466;28;20020;-21
2023/08/20 03:44:24;;;;;;;2.08;1.98;;;;;;;;;;5058985;28;20016;-23
2023/08/20 03:46:50;;;;;;;2.58;2.15;;;;;;;;;;5076759;28;20016;-22
2023/08/20 03:49:16;;;;;;;2.05;1.95;;;;;;;;;;5076416;28;20020;-24
2023/08/20 03:51:42;;;;;;;2.42;2.33;;;;;;;;;;5076428;28;20017;-24
2023/08/20 03:54:09;;;;;;;2.38;2.28;;;;;;;;;;5076178;28;20447;-20
2023/08/20 03:56:36;;;;;;;2.60;2.50;;;;;;;;;;5076351;28;20422;-24
2023/08/20 03:59:02;;;;;;;2.35;2.25;;;;;;;;;;5076291;28;20021;-24
2023/08/20 04:01:28;;;;;;;1.92;1.83;;;;;;;;;;5076557;28;20024;-20
2023/08/20 04:03:54;;;;;;;2.10;2.00;;;;;;;;;;5075929;28;20106;-24
2023/08/20 04:06:22;;;;;;;2.03;1.92;;;;;;;;;;5076061;28;20048;-23
2023/08/20 04:08:48;;;;;;;2.50;2.40;;;;;;;;;;5076099;28;20086;-22
2023/08/20 04:11:15;;;;;;;2.20;2.10;;;;;;;;;;5075999;28;20071;-24
2023/08/20 04:13:43;;;;;;;2.00;1.90;;;;;;;;;;5058282;28;20043;-27
2023/08/20 04:16:09;;;;;;;2.45;2.35;;;;;;;;;;5075818;28;20478;-24
2023/08/20 04:18:35;;;;;;;2.08;1.98;;;;;;;;;;5076114;28;20109;-24
2023/08/20 04:21:02;;;;;;;2.33;2.22;;;;;;;;;;5076100;28;20048;-22
2023/08/20 04:23:28;;;;;;;2.17;2.08;;;;;;;;;;5058353;28;20523;-22
2023/08/20 04:25:54;;;;;;;2.30;2.10;;;;;;;;;;5075656;28;20146;-22
2023/08/20 04:28:20;;;;;;;2.80;2.60;;;;;;;;;;5075726;28;20027;-27
2023/08/20 04:30:46;;;;;;;2.08;1.88;;;;;;;;;;5075882;28;20047;-20
2023/08/20 04:33:12;;;;;;;2.60;2.40;;;;;;;;;;5075821;28;20024;-22
2023/08/20 04:35:38;;;;;;;2.05;1.95;;;;;;;;;;5075781;28;20025;-22
2023/08/20 04:38:04;;;;;;;2.30;2.20;;;;;;;;;;5075496;28;20031;-24
2023/08/20 04:40:30;;;;;;;2.38;2.28;;;;;;;;;;5075702;28;20020;-22
2023/08/20 04:42:57;;;;;;;1.90;1.80;;;;;;;;;;5075349;28;20016;-26
2023/08/20 04:45:23;;;;;;;2.15;2.05;;;;;;;;;;5075632;28;20029;-22
2023/08/20 04:47:49;;;;;;;2.35;2.22;;;;;;;;;;5075322;28;20090;-26
2023/08/20 04:50:16;;;;;;;1.83;1.73;;;;;;;;;;5075599;28;20029;-23
2023/08/20 04:52:42;;;;;;;2.75;2.55;;;;;;;;;;5074929;28;20359;-27
2023/08/20 04:55:08;;;;;;;1.73;1.63;;;;;;;;;;5074884;28;20024;-22
2023/08/20 04:57:34;;;;;;;2.30;2.20;;;;;;;;;;5075163;28;20102;-21
2023/08/20 05:00:00;;;;;;;1.92;1.83;;;;;;;;;;5075124;28;20070;-23
2023/08/20 05:02:26;;;;;;;2.10;2.00;;;;;;;;;;5075206;28;20028;-22
2023/08/20 05:04:53;;;;;;;2.30;2.20;;;;;;;;;;5074926;28;20061;-23
2023/08/20 05:07:20;;;;;;;1.90;1.80;;;;;;;;;;5075033;28;20028;-23
2023/08/20 05:09:46;;;;;;;1.92;1.83;;;;;;;;;;5074954;28;20035;-22
2023/08/20 05:12:12;;;;;;;2.17;2.08;;;;;;;;;;5074893;28;20036;-22
2023/08/20 05:14:38;;;;;;;2.00;1.90;;;;;;;;;;5074814;28;20355;-20
2023/08/20 05:17:04;;;;;;;2.00;1.90;;;;;;;;;;5074863;28;20020;-26
2023/08/20 05:19:30;;;;;;;2.00;1.90;;;;;;;;;;5075081;28;20036;-26
2023/08/20 05:21:58;;;;;;;2.30;2.15;;;;;;;;;;5075039;28;20355;-23
2023/08/20 05:24:25;;;;;;;1.95;1.85;;;;;;;;;;5074762;28;20166;-24
2023/08/20 05:27:07;;;;;;;2.25;2.15;;;;;;;;;;5074757;28;20025;-23
2023/08/20 05:29:33;;;;;;;1.90;1.80;;;;;;;;;;5074618;28;20048;-22
2023/08/20 05:31:59;;;;;;;1.80;1.70;;;;;;;;;;5074606;28;20046;-27
2023/08/20 05:34:25;;;;;;;1.90;1.80;;;;;;;;;;5074602;28;20351;-27
2023/08/20 05:36:51;;;;;;;2.22;2.13;;;;;;;;;;5074573;28;20459;-21
2023/08/20 05:39:18;;;;;;;2.33;2.22;;;;;;;;;;5074607;28;20036;-24
2023/08/20 05:41:44;;;;;;;1.80;1.70;;;;;;;;;;5074850;28;20051;-21
2023/08/20 05:44:10;;;;;;;2.03;1.92;;;;;;;;;;5074847;28;20478;-21
2023/08/20 05:46:37;;;;;;;2.30;2.20;;;;;;;;;;5074548;28;20406;-22
2023/08/20 05:49:03;;;;;;;2.00;1.90;;;;;;;;;;5074521;28;20045;-20
2023/08/20 05:51:29;;;;;;;2.30;2.10;;;;;;;;;;5074491;28;20094;-26
2023/08/20 05:53:55;;;;;;;2.30;2.20;;;;;;;;;;5074437;28;20021;-23
2023/08/20 05:56:21;;;;;;;1.98;1.88;;;;;;;;;;5074399;28;20021;-21
2023/08/20 05:58:47;;;;;;;2.42;2.33;;;;;;;;;;5074451;28;20032;-22
2023/08/20 06:01:13;;;;;;;1.75;1.65;;;;;;;;;;5074681;28;20028;-20
2023/08/20 06:03:39;;;;;;;1.70;1.60;;;;;;;;;;5074084;28;20025;-22
2023/08/20 06:06:06;;;;;;;1.90;1.80;;;;;;;;;;5076587;28;20340;-21
2023/08/20 06:08:32;;;;;;;2.20;2.10;;;;;;;;;;5078443;28;20371;-25
2023/08/20 06:10:58;;;;;;;2.05;1.95;;;;;;;;;;5078626;28;20039;-26
2023/08/20 06:13:24;;;;;;;2.25;2.15;;;;;;;;;;5078248;28;20078;-22
2023/08/20 06:15:50;;;;;;;1.90;1.80;;;;;;;;;;5078421;28;20020;-25
2023/08/20 06:18:16;;;;;;;2.03;1.92;;;;;;;;;;5060563;28;20017;-22
2023/08/20 06:20:43;;;;;;;1.90;1.80;;;;;;;;;;5078436;28;20021;-22
2023/08/20 06:23:09;;;;;;;2.03;1.92;;;;;;;;;;5078097;28;20021;-21
2023/08/20 06:25:35;;;;;;;2.10;2.00;;;;;;;;;;5078071;28;20028;-26
2023/08/20 06:28:01;;;;;;;2.05;1.95;;;;;;;;;;5078010;28;20039;-25
2023/08/20 06:30:27;;;;;;;1.77;1.67;;;;;;;;;;5077977;28;20043;-27
2023/08/20 06:32:53;;;;;;;2.00;1.90;;;;;;;;;;5077837;28;20443;-21
2023/08/20 06:35:19;;;;;;;1.98;1.88;;;;;;;;;;5078062;28;20036;-24
2023/08/20 06:37:45;;;;;;;1.83;1.73;;;;;;;;;;5077827;28;20032;-21
2023/08/20 06:40:13;;;;;;;1.92;1.83;;;;;;;;;;5078041;28;20351;-21
2023/08/20 06:42:39;;;;;;;2.35;2.25;;;;;;;;;;5077625;28;20455;-21
2023/08/20 06:45:06;;;;;;;2.20;2.10;;;;;;;;;;5077695;28;20038;-24
2023/08/20 06:47:32;;;;;;;2.00;1.90;;;;;;;;;;5077672;28;20029;-19
2023/08/20 06:49:58;;;;;;;2.35;2.20;;;;;;;;;;5077599;28;20021;-22
2023/08/20 06:52:24;;;;;;;1.95;1.83;;;;;;;;;;5077475;28;20029;-27
2023/08/20 06:54:50;;;;;;;1.60;1.50;;;;;;;;;;5077697;28;20029;-28
2023/08/20 06:57:16;;;;;;;1.95;1.85;;;;;;;;;;5078024;28;20095;-23
2023/08/20 06:59:43;;;;;;;1.77;1.67;;;;;;;;;;5077449;28;20095;-24
2023/08/20 07:02:10;;;;;;;1.88;1.77;;;;;;;;;;5077263;28;20516;-23
2023/08/20 07:04:36;;;;;;;1.88;1.77;;;;;;;;;;5077067;28;20064;-25
2023/08/20 07:07:04;;;;;;;1.90;1.80;;;;;;;;;;5059562;28;20039;-21
2023/08/20 07:09:30;;;;;;;2.10;2.00;;;;;;;;;;5077534;28;20512;-26
2023/08/20 07:11:57;;;;;;;2.20;2.10;;;;;;;;;;5077390;28;20029;-22
2023/08/20 07:14:23;;;;;;;2.10;2.00;;;;;;;;;;5077386;28;20024;-22
2023/08/20 07:16:49;;;;;;;2.03;1.92;;;;;;;;;;5076694;28;20443;-21
2023/08/20 07:19:15;;;;;;;2.00;1.90;;;;;;;;;;5077387;28;20016;-21
2023/08/20 07:21:41;;;;;;;2.17;2.08;;;;;;;;;;5077076;28;20025;-20
2023/08/20 07:24:07;;;;;;;1.98;1.88;;;;;;;;;;5076926;28;20016;-22
2023/08/20 07:26:33;;;;;;;1.92;1.83;;;;;;;;;;5076943;28;20045;-26
2023/08/20 07:29:00;;;;;;;2.00;1.90;;;;;;;;;;5059197;28;20093;-26
2023/08/20 07:31:30;;;;;;;2.22;2.13;;;;;;;;;;5077086;28;20087;-24
2023/08/20 07:33:57;;;;;;;1.92;1.83;;;;;;;;;;5076809;28;20025;-20
2023/08/20 07:36:23;;;;;;;1.95;1.85;;;;;;;;;;5076705;28;20032;-21
2023/08/20 07:38:50;;;;;;;2.03;1.90;;;;;;;;;;5076729;28;20032;-21
2023/08/20 07:41:16;;;;;;;1.98;1.88;;;;;;;;;;5059018;28;20455;-19
2023/08/20 07:43:42;;;;;;;2.00;1.90;;;;;;;;;;5076639;28;20059;-19
2023/08/20 07:46:09;;;;;;;1.80;1.70;;;;;;;;;;5076834;28;20035;-22
2023/08/20 07:48:35;;;;;;;2.00;1.90;;;;;;;;;;5076799;28;20376;-25
2023/08/20 07:51:02;;;;;;;1.52;1.50;;;;;;;;;;5076484;28;20031;-22
2023/08/20 07:53:29;;;;;;;1.92;1.83;;;;;;;;;;5076422;28;20024;-22
2023/08/20 07:55:55;;;;;;;2.20;2.10;;;;;;;;;;5076322;28;20474;-23
2023/08/20 07:58:22;;;;;;;1.95;1.85;;;;;;;;;;5076382;28;20056;-25
2023/08/20 08:00:48;;;;;;;1.70;1.60;;;;;;;;;;5076334;28;20464;-23
2023/08/20 08:03:14;;;;;;;1.75;1.65;;;;;;;;;;5058500;28;20402;-22
2023/08/20 08:05:41;;;;;;;2.05;1.95;;;;;;;;;;5076013;28;20127;-24
2023/08/20 08:08:07;;;;;;;2.00;1.90;;;;;;;;;;5058547;28;20075;-21
2023/08/20 08:10:33;;;;;;;2.05;1.95;;;;;;;;;;5076105;28;20032;-21
2023/08/20 08:13:00;;;;;;;2.00;1.90;;;;;;;;;;5075967;28;20388;-20
2023/08/20 08:15:26;;;;;;;1.77;1.67;;;;;;;;;;5076192;28;20032;-21
2023/08/20 08:17:52;;;;;;;2.03;1.92;;;;;;;;;;5076234;28;20059;-21
2023/08/20 08:20:18;;;;;;;1.85;1.75;;;;;;;;;;5076163;28;20035;-25
2023/08/20 08:22:44;;;;;;;1.88;1.77;;;;;;;;;;5075755;28;20371;-23
2023/08/20 08:25:10;;;;;;;2.33;2.22;;;;;;;;;;5075802;28;20079;-30
2023/08/20 08:27:36;;;;;;;1.77;1.67;;;;;;;;;;5075530;28;20028;-26
2023/08/20 08:30:03;;;;;;;2.17;2.08;;;;;;;;;;5075619;28;20025;-20
2023/08/20 08:32:29;;;;;;;1.95;1.85;;;;;;;;;;5075591;28;20029;-23
2023/08/20 08:34:55;;;;;;;1.80;1.70;;;;;;;;;;5075494;28;20068;-22
2023/08/20 08:37:21;;;;;;;2.03;1.92;;;;;;;;;;5075886;28;20101;-22
2023/08/20 08:39:47;;;;;;;2.33;2.22;;;;;;;;;;5075792;28;20031;-23
2023/08/20 08:42:15;;;;;;;2.42;2.33;;;;;;;;;;5075662;28;20024;-25
2023/08/20 08:44:41;;;;;;;2.03;1.92;;;;;;;;;;5075431;28;20108;-23
2023/08/20 08:47:07;;;;;;;1.88;1.77;;;;;;;;;;5075389;28;20024;-25
2023/08/20 08:49:34;;;;;;;1.90;1.80;;;;;;;;;;5075586;28;20090;-25
2023/08/20 08:52:00;;;;;;;2.30;2.20;;;;;;;;;;5075213;28;20039;-26
2023/08/20 08:54:27;;;;;;;1.80;1.70;;;;;;;;;;5075172;28;20104;-24
2023/08/20 08:56:53;;;;;;;2.30;2.20;;;;;;;;;;5075191;28;20340;-24
2023/08/20 08:59:20;;;;;;;2.10;2.00;;;;;;;;;;5075194;28;20082;-25
2023/08/20 09:01:47;;;;;;;1.98;1.88;;;;;;;;;;5075058;28;20016;-24
2023/08/20 09:04:13;;;;;;;1.90;1.80;;;;;;;;;;5074837;28;20040;-26
2023/08/20 09:06:46;;;;;;;1.90;1.80;;;;;;;;;;5075029;28;20123;-24
2023/08/20 09:09:12;;;;;;;2.05;1.95;;;;;;;;;;5074991;28;20016;-22
2023/08/20 09:11:39;;;;;;;2.00;1.90;;;;;;;;;;5074970;28;20061;-23
2023/08/20 09:14:05;;;;;;;2.13;2.03;;;;;;;;;;5074874;28;20024;-24
2023/08/20 09:16:31;;;;;;;2.20;2.10;;;;;;;;;;5075060;28;20029;-23
2023/08/20 09:19:01;;;;;;;1.88;1.77;;;;;;;;;;5075116;28;20024;-22
2023/08/20 09:21:30;;;;;;;2.35;2.22;;;;;;;;;;5074777;28;20020;-23
2023/08/20 09:24:02;;;;;;;2.45;2.25;;;;;;;;;;5074747;28;20048;-23
2023/08/20 09:26:28;;;;;;;2.22;2.13;;;;;;;;;;5074736;28;20492;-23
2023/08/20 09:28:58;;;;;;;1.98;1.88;;;;;;;;;;5074768;28;20040;-22
2023/08/20 09:31:37;;;;;;;2.20;2.10;;;;;;;;;;5075283;28;20029;-22
2023/08/20 09:34:03;;;;;;;1.98;1.88;;;;;;;;;;5075197;28;20028;-26
2023/08/20 09:36:31;;;;;;;2.25;2.15;;;;;;;;;;5074596;28;20039;-21
2023/08/20 09:38:57;;;;;;;2.70;2.50;;;;;;;;;;5056768;28;20032;-22
2023/08/20 09:41:26;;;;;;;2.42;2.30;;;;;;;;;;5074900;28;20020;-20
2023/08/20 09:43:59;;;;;;;2.28;2.17;;;;;;;;;;5074515;28;20031;-23
2023/08/20 09:46:27;;;;;;;2.00;1.90;;;;;;;;;;5074860;28;20116;-22
2023/08/20 09:48:56;;;;;;;2.45;2.35;;;;;;;;;;5075027;28;20454;-21
2023/08/20 09:51:25;;;;;;;2.20;2.10;;;;;;;;;;5074468;28;20032;-24
2023/08/20 09:53:57;;;;;;;2.35;2.20;;;;;;;;;;5074415;28;20341;-21
2023/08/20 09:56:27;;;;;;;2.40;2.30;;;;;;;;;;5074683;28;20044;-21
2023/08/20 09:58:54;;;;;;;2.42;2.33;;;;;;;;;;5074429;28;20056;-22
2023/08/20 10:01:20;;;;;;;2.28;2.17;;;;;;;;;;5074679;28;20111;-26
2023/08/20 10:03:47;;;;;;;2.65;2.55;;;;;;;;;;5074104;28;20040;-25
2023/08/20 10:06:13;;;;;;;2.60;2.50;;;;;;;;;;5074671;28;20111;-24
2023/08/20 10:08:39;;;;;;;2.42;2.33;;;;;;;;;;5074581;28;20043;-23
2023/08/20 10:11:05;;;;;;;2.58;2.47;;;;;;;;;;5074559;28;20020;-26
2023/08/20 10:13:32;;;;;;;2.78;2.58;;;;;;;;;;5074238;28;20024;-22
2023/08/20 10:15:58;;;;;;;2.30;2.20;;;;;;;;;;5074688;28;20021;-24
2023/08/20 10:18:24;;;;;;;2.72;2.63;;;;;;;;;;5074272;28;20025;-24
2023/08/20 10:20:51;;;;;;;2.60;2.50;;;;;;;;;;5074459;28;20407;-21
2023/08/20 10:23:22;;;;;;;2.33;2.22;;;;;;;;;;5074350;28;20024;-22
2023/08/20 10:25:49;;;;;;;2.55;2.45;;;;;;;;;;5074148;28;20502;-24
2023/08/20 10:28:22;;;;;;;2.20;2.10;;;;;;;;;;5074159;28;20032;-24
2023/08/20 10:31:07;;;;;;;2.45;2.28;;;;;;;;;;5074138;28;20459;-22
2023/08/20 10:33:37;;;;;;;2.45;2.33;;;;;;;;;;5074112;28;20112;-26
2023/08/20 10:36:10;;;;;;;2.47;2.38;;;;;;;;;;5073931;28;20123;-22
2023/08/20 10:38:37;;;;;;;2.60;2.47;;;;;;;;;;5074798;28;20056;-22
2023/08/20 10:41:06;;;;;;;3.03;2.85;;;;;;;;;;5056368;28;20024;-25
2023/08/20 10:43:37;;;;;;;3.15;2.95;;;;;;;;;;5074433;28;20028;-23
2023/08/20 10:46:04;;;;;;;2.90;2.70;;;;;;;;;;5074253;28;20028;-24
2023/08/20 10:48:33;;;;;;;2.58;2.42;;;;;;;;;;5074250;28;20028;-22
2023/08/20 10:51:06;;;;;;;2.20;2.10;;;;;;;;;;5073999;28;20028;-25
2023/08/20 10:53:32;;;;;;;2.60;2.50;;;;;;;;;;5078019;28;20040;-23
2023/08/20 10:56:08;;;;;;;2.78;2.65;;;;;;;;;;5077456;28;20040;-27
2023/08/20 10:58:34;;;;;;;3.05;2.85;;;;;;;;;;5077771;28;20122;-26
2023/08/20 11:01:19;;;;;;;2.35;2.25;;;;;;;;;;5077840;28;20344;-20
2023/08/20 11:03:46;;;;;;;3.08;2.88;;;;;;;;;;5077105;28;20024;-23
2023/08/20 11:06:12;;;;;;;3.08;2.88;;;;;;;;;;5077418;28;20020;-21
2023/08/20 11:08:42;;;;;;;2.38;2.28;;;;;;;;;;5077244;28;20021;-26
2023/08/20 11:11:08;;;;;;;2.47;2.37;;;;;;;;;;5078207;28;20329;-22
2023/08/20 11:13:35;;;;;;;2.80;2.70;;;;;;;;;;5077102;28;20024;-22
2023/08/20 11:16:02;;;;;;;3.00;2.80;;;;;;;;;;5077056;28;20113;-22
2023/08/20 11:18:28;;;;;;;2.65;2.55;;;;;;;;;;5077126;28;20535;-23
2023/08/20 11:20:55;;;;;;;2.70;2.55;;;;;;;;;;5077325;28;20031;-21
2023/08/20 11:23:22;;;;;;;2.58;2.47;;;;;;;;;;5077223;28;20111;-20
2023/08/20 11:25:48;;;;;;;2.40;2.30;;;;;;;;;;5077012;28;20024;-20
2023/08/20 11:28:14;;;;;;;3.17;2.97;;;;;;;;;;5059588;28;20482;-22
2023/08/20 11:30:40;;;;;;;2.80;2.70;;;;;;;;;;5077146;28;20363;-23
2023/08/20 11:33:07;;;;;;;3.03;2.88;;;;;;;;;;5077097;28;20024;-23
2023/08/20 11:35:35;;;;;;;2.95;2.85;;;;;;;;;;5076916;28;20032;-22
2023/08/20 11:38:01;;;;;;;2.40;2.30;;;;;;;;;;5076758;28;20032;-27
2023/08/20 11:40:27;;;;;;;2.90;2.70;;;;;;;;;;5076669;28;20092;-22
2023/08/20 11:42:53;;;;;;;2.72;2.63;;;;;;;;;;5076834;28;20504;-23
2023/08/20 11:45:20;;;;;;;3.20;3.00;;;;;;;;;;5076912;28;20143;-26
2023/08/20 11:47:46;;;;;;;2.83;2.67;;;;;;;;;;5076590;28;20052;-25
2023/08/20 11:50:12;;;;;;;2.67;2.58;;;;;;;;;;5076473;28;20032;-22
2023/08/20 11:52:42;;;;;;;2.70;2.60;;;;;;;;;;5058961;28;20024;-24
2023/08/20 11:55:09;;;;;;;2.58;2.47;;;;;;;;;;5076346;28;20024;-20
2023/08/20 11:57:35;;;;;;;2.80;2.70;;;;;;;;;;5076409;28;20402;-19
2023/08/20 12:00:09;;;;;;;3.22;3.03;;;;;;;;;;5076342;28;20351;-26
2023/08/20 12:02:35;;;;;;;2.90;2.70;;;;;;;;;;5075721;28;20047;-25
2023/08/20 12:05:02;;;;;;;3.20;3.00;;;;;;;;;;5075556;28;20490;-21
2023/08/20 12:07:28;;;;;;;2.88;2.70;;;;;;;;;;5076118;28;20093;-24
2023/08/20 12:09:55;;;;;;;2.90;2.80;;;;;;;;;;5076162;28;20423;-22
2023/08/20 12:12:21;;;;;;;2.63;2.50;;;;;;;;;;5076276;28;20402;-23
2023/08/20 12:14:48;;;;;;;3.00;2.80;;;;;;;;;;5075959;28;20028;-24
2023/08/20 12:17:18;;;;;;;2.90;2.72;;;;;;;;;;5076031;28;20372;-24
2023/08/20 12:19:44;;;;;;;2.67;2.58;;;;;;;;;;5076234;28;20074;-23
2023/08/20 12:22:10;;;;;;;2.70;2.50;;;;;;;;;;5076107;28;20045;-21
2023/08/20 12:24:36;;;;;;;3.03;2.83;;;;;;;;;;5075785;28;20443;-30
2023/08/20 12:27:03;;;;;;;2.72;2.63;;;;;;;;;;5076057;28;20028;-21
2023/08/20 12:29:29;;;;;;;2.83;2.63;;;;;;;;;;5075736;28;20352;-24
2023/08/20 12:31:55;;;;;;;2.78;2.67;;;;;;;;;;5075908;28;20021;-21
2023/08/20 12:34:23;;;;;;;2.67;2.58;;;;;;;;;;5075674;28;20123;-24
2023/08/20 12:36:50;;;;;;;3.10;2.90;;;;;;;;;;5075429;28;20039;-24
2023/08/20 12:39:16;;;;;;;2.78;2.67;;;;;;;;;;5075531;28;20017;-23
2023/08/20 12:41:42;;;;;;;2.70;2.50;;;;;;;;;;5075433;28;20082;-22
2023/08/20 12:44:09;;;;;;;3.25;3.05;;;;;;;;;;5075660;28;20421;-23
2023/08/20 12:46:35;;;;;;;2.65;2.55;;;;;;;;;;5075386;28;20111;-24
2023/08/20 12:49:01;;;;;;;2.33;2.22;;;;;;;;;;5075382;28;20024;-22
2023/08/20 12:51:28;;;;;;;3.05;2.85;;;;;;;;;;5075554;28;20039;-20
2023/08/20 12:53:54;;;;;;;2.83;2.63;;;;;;;;;;5057529;28;20482;-23
2023/08/20 12:56:20;;;;;;;2.75;2.65;;;;;;;;;;5075168;28;20031;-27
2023/08/20 12:58:46;;;;;;;2.55;2.45;;;;;;;;;;5075403;28;20063;-23
2023/08/20 13:01:12;;;;;;;3.10;2.90;;;;;;;;;;5075126;28;20020;-23
2023/08/20 13:03:38;;;;;;;3.00;2.90;;;;;;;;;;5075077;28;20024;-24
2023/08/20 13:06:05;;;;;;;2.83;2.65;;;;;;;;;;5058071;28;20087;-21
2023/08/20 13:08:31;;;;;;;2.97;2.80;;;;;;;;;;5075296;28;20059;-28
2023/08/20 13:10:58;;;;;;;2.60;2.50;;;;;;;;;;5074986;28;20444;-20
2023/08/20 13:13:25;;;;;;;2.83;2.63;;;;;;;;;;5074864;28;20024;-23
2023/08/20 13:15:52;;;;;;;2.67;2.47;;;;;;;;;;5057317;28;20024;-26
2023/08/20 13:18:18;;;;;;;3.17;2.97;;;;;;;;;;5075176;28;20027;-19
2023/08/20 13:20:45;;;;;;;2.67;2.55;;;;;;;;;;5074757;28;20367;-21
2023/08/20 13:23:11;;;;;;;3.03;2.83;;;;;;;;;;5057415;28;20020;-23
2023/08/20 13:25:37;;;;;;;2.58;2.47;;;;;;;;;;5075004;28;20028;-26
2023/08/20 13:28:03;;;;;;;2.85;2.60;;;;;;;;;;5074785;28;20041;-23
2023/08/20 13:30:29;;;;;;;2.80;2.60;;;;;;;;;;5074748;28;20398;-24
2023/08/20 13:32:55;;;;;;;2.60;2.50;;;;;;;;;;5074833;28;20444;-23
2023/08/20 13:35:22;;;;;;;2.97;2.78;;;;;;;;;;5074920;28;20032;-23
2023/08/20 13:37:48;;;;;;;2.50;2.40;;;;;;;;;;5074904;28;20360;-21
2023/08/20 13:40:15;;;;;;;2.65;2.50;;;;;;;;;;5074904;28;20016;-22
2023/08/20 13:42:41;;;;;;;2.60;2.50;;;;;;;;;;5074524;28;20020;-23
2023/08/20 13:45:07;;;;;;;2.42;2.33;;;;;;;;;;5074562;28;20024;-21
2023/08/20 13:47:33;;;;;;;2.42;2.30;;;;;;;;;;5074804;28;20089;-22
2023/08/20 13:50:00;;;;;;;2.83;2.63;;;;;;;;;;5074510;28;20058;-25
2023/08/20 13:52:26;;;;;;;2.75;2.65;;;;;;;;;;5074671;28;20103;-25
2023/08/20 13:54:52;;;;;;;2.50;2.40;;;;;;;;;;5056698;28;20435;-26
2023/08/20 13:57:18;;;;;;;2.22;2.13;;;;;;;;;;5074682;28;20028;-23
2023/08/20 13:59:44;;;;;;;2.92;2.78;;;;;;;;;;5074366;28;20028;-26
2023/08/20 14:02:12;;;;;;;2.45;2.35;;;;;;;;;;5074362;28;20017;-25
2023/08/20 14:04:38;;;;;;;2.25;2.15;;;;;;;;;;5074087;28;20059;-24
2023/08/20 14:07:04;;;;;;;2.67;2.58;;;;;;;;;;5074370;28;20024;-23
2023/08/20 14:09:30;;;;;;;2.67;2.58;;;;;;;;;;5074319;28;20035;-22
2023/08/20 14:11:56;;;;;;;2.60;2.50;;;;;;;;;;5074256;28;20020;-21
2023/08/20 14:14:22;;;;;;;2.92;2.67;;;;;;;;;;5074619;28;20063;-24
2023/08/20 14:16:49;;;;;;;3.03;2.83;;;;;;;;;;5074463;28;20424;-24
2023/08/20 14:19:15;;;;;;;2.53;2.42;;;;;;;;;;5074255;28;20028;-25
2023/08/20 14:21:41;;;;;;;2.30;2.20;;;;;;;;;;5074230;28;20396;-24
2023/08/20 14:24:07;;;;;;;2.40;2.30;;;;;;;;;;5074167;28;20020;-22
2023/08/20 14:26:33;;;;;;;2.60;2.40;;;;;;;;;;5075430;28;20441;-22
2023/08/20 14:28:59;;;;;;;2.22;2.13;;;;;;;;;;5060421;28;20078;-25
2023/08/20 14:31:25;;;;;;;2.05;1.95;;;;;;;;;;5078258;28;20024;-21
2023/08/20 14:33:51;;;;;;;2.17;2.08;;;;;;;;;;5077883;28;20028;-22
2023/08/20 14:36:18;;;;;;;2.42;2.33;;;;;;;;;;5077837;28;20114;-24
2023/08/20 14:38:44;;;;;;;2.40;2.30;;;;;;;;;;5077832;28;20025;-24
2023/08/20 14:41:10;;;;;;;2.80;2.60;;;;;;;;;;5077757;28;20036;-22